Airfield :
LOGIN :

Register | Disclaimer

   EN    FR    IT 

 










Legend :    VFR   Marginal VFR   IFR   Intensive IFR   Very Intensive IFR
Visi :
Ceiling :
>= 8 km
>= 3000ft
5 to 8 km
1000 to 3000 ft
1500m to 5 km
500 to 1000 ft
800 to 1500m
200 to 500 ft
< 800m
< 200 ft
Symbols :   Thunderstorms  Fog  Heavy snow  Heavy precipitations  Wind > 20 kt
SIGMETs :     Misc.  Thunderstorms  Icing  Turbulence  Mountain Waves  Volcanic Ashes






- Airport Elevation : 53 ft
- IATA code : HAM


EDDH - Hamburg

CURRENT METAR :
  • 021520Z AUTO 28008KT CAVOK 07/01 Q1020 NOSIG

EXPIRED METARs :
  • 021450Z AUTO 30007KT 9999 FEW029 07/02 Q1020 NOSIG
  • 021420Z AUTO 30007KT 9999 FEW028 SCT042 08/02 Q1019 NOSIG
  • 021350Z AUTO 30009KT 270V330 9999 FEW025 SCT039 BKN048 07/02 Q1019 NOSIG
  • 021320Z AUTO 30006KT 270V330 9999 FEW025 SCT034 BKN044 07/02 Q1019 NOSIG
  • 021250Z AUTO 31010KT 9999 FEW024 SCT032 BKN043 07/02 Q1019 NOSIG

TAF TAF EDDH
Valid from the 02 at 12:00 until the 03 at 18:00 UTC


021100Z 0212/0318 30009KT 9999 SCT020
BECMG 0216/0218 22006KT
BECMG 0220/0222 OVC013
TEMPO 0221/0309 4500 -RADZ BKN006
PROB30
TEMPO 0222/0301 RA BKN004
BECMG 0301/0302 26012KT
PROB40
TEMPO 0303/0309 26015G25KT
PROB30
TEMPO 0307/0309 RA
BECMG 0309/0311 29015G25KT SCT020
TEMPO 0310/0315 30020G40KT



MET'MAP, your aeronautical weather chart ! - Copyright ORBIFLY December 2007 - Disclaimer

ORBIFLY MET'MAP TEAM :

Programming & Development : Alexandra Zaïnal
Original concept : Baudouin d'Aumeries
Technical & hardware support : Manuel Goepfert
Assistance : Marc-Olivier Méhu




SOURCES & CREDITS :

   NOAA